Time;durP1;ratioP1;P1;durP2;ratioP2;P2;SDS_P1;SDS_P2;PMS_P1;PMS_P2;Temp;Humidity;BMP_temperature;BMP_pressure;BME280_temperature;BME280_humidity;BME280_pressure;Samples;Min_cycle;Max_cycle;Signal;HPM_P1;HPM_P2
2022/08/18 00:01:40;;;;;;;8.90;8.00;;;;;;;;;;5053755;28;20862;-71
2022/08/18 00:04:07;;;;;;;12.53;6.93;;;;;;;;;;5053563;28;20560;-71
2022/08/18 00:06:34;;;;;;;9.33;7.57;;;;;;;;;;5055106;28;20438;-71
2022/08/18 00:09:03;;;;;;;8.47;7.10;;;;;;;;;;5053713;28;20557;-71
2022/08/18 00:11:31;;;;;;;8.23;7.40;;;;;;;;;;5053516;28;20458;-71
2022/08/18 00:13:58;;;;;;;8.30;7.30;;;;;;;;;;5054417;28;20585;-71
2022/08/18 00:16:28;;;;;;;8.60;7.40;;;;;;;;;;5053833;28;20464;-71
2022/08/18 00:18:55;;;;;;;8.47;7.10;;;;;;;;;;5052590;28;20485;-71
2022/08/18 00:21:22;;;;;;;11.20;7.67;;;;;;;;;;5053344;28;20446;-71
2022/08/18 00:23:49;;;;;;;9.70;8.27;;;;;;;;;;5054203;28;20453;-71
2022/08/18 00:26:17;;;;;;;7.80;7.10;;;;;;;;;;5053941;28;20460;-71
2022/08/18 00:28:44;;;;;;;10.07;8.33;;;;;;;;;;5053065;28;20779;-71
2022/08/18 00:31:11;;;;;;;9.17;8.20;;;;;;;;;;5053812;28;20449;-71
2022/08/18 00:33:38;;;;;;;10.10;8.07;;;;;;;;;;5053488;28;20464;-72
2022/08/18 00:36:05;;;;;;;10.77;7.77;;;;;;;;;;5054011;28;20481;-71
2022/08/18 00:38:33;;;;;;;9.10;7.80;;;;;;;;;;5053412;28;20489;-71
2022/08/18 00:41:00;;;;;;;8.93;7.00;;;;;;;;;;5053591;28;20964;-71
2022/08/18 00:43:32;;;;;;;9.10;7.80;;;;;;;;;;5053914;28;20905;-71
2022/08/18 00:46:00;;;;;;;11.27;9.17;;;;;;;;;;5051967;28;20742;-71
2022/08/18 00:48:27;;;;;;;9.30;8.30;;;;;;;;;;5054327;28;20449;-71
2022/08/18 00:50:56;;;;;;;10.63;8.57;;;;;;;;;;5053107;28;20511;-71
2022/08/18 00:53:26;;;;;;;9.17;8.27;;;;;;;;;;5053696;28;20484;-71
2022/08/18 00:55:53;;;;;;;10.13;9.20;;;;;;;;;;5054780;28;20454;-71
2022/08/18 00:58:25;;;;;;;10.40;8.60;;;;;;;;;;5053504;28;20461;-71
2022/08/18 01:00:54;;;;;;;9.50;8.60;;;;;;;;;;5054861;28;20461;-71
2022/08/18 01:03:21;;;;;;;12.00;8.83;;;;;;;;;;5053217;28;20456;-71
2022/08/18 01:05:50;;;;;;;10.70;8.13;;;;;;;;;;5053221;28;20460;-71
2022/08/18 01:08:18;;;;;;;11.00;9.30;;;;;;;;;;5053366;28;20444;-71
2022/08/18 01:10:45;;;;;;;10.10;9.10;;;;;;;;;;5053199;28;20457;-71
2022/08/18 01:13:13;;;;;;;11.00;9.60;;;;;;;;;;5053587;28;20445;-71
2022/08/18 01:15:40;;;;;;;10.50;9.40;;;;;;;;;;5052993;28;20533;-71
2022/08/18 01:23:47;;;;;;;9.57;8.57;;;;;;;;;;5032869;28;20437;-71
2022/08/18 01:26:15;;;;;;;12.53;8.77;;;;;;;;;;5032628;28;20454;-72
2022/08/18 01:28:43;;;;;;;11.17;8.63;;;;;;;;;;5032687;28;20466;-71
2022/08/18 01:31:12;;;;;;;10.30;9.17;;;;;;;;;;5033127;28;20554;-71
2022/08/18 01:33:40;;;;;;;13.00;11.03;;;;;;;;;;5033000;28;20458;-71
2022/08/18 01:36:13;;;;;;;11.77;10.57;;;;;;;;;;5032821;28;20454;-71
2022/08/18 01:38:40;;;;;;;12.13;8.93;;;;;;;;;;5032030;28;20489;-71
2022/08/18 01:41:11;;;;;;;12.13;9.83;;;;;;;;;;5033415;28;20883;-71
2022/08/18 01:43:38;;;;;;;10.33;9.33;;;;;;;;;;5033037;28;20851;-71
2022/08/18 01:46:06;;;;;;;10.57;9.43;;;;;;;;;;5033042;28;20879;-71
2022/08/18 01:48:34;;;;;;;10.13;9.07;;;;;;;;;;5031921;28;20451;-71
2022/08/18 01:51:02;;;;;;;10.57;9.50;;;;;;;;;;5032817;28;20470;-71
2022/08/18 01:53:30;;;;;;;11.30;10.10;;;;;;;;;;5032224;28;20457;-71
2022/08/18 01:55:57;;;;;;;11.40;10.30;;;;;;;;;;5033112;28;20462;-71
2022/08/18 01:58:27;;;;;;;13.00;11.00;;;;;;;;;;5031792;28;20466;-71
2022/08/18 02:00:55;;;;;;;11.87;9.57;;;;;;;;;;5033427;28;20466;-71
2022/08/18 02:03:25;;;;;;;11.30;10.20;;;;;;;;;;5032155;28;20446;-71
2022/08/18 02:05:55;;;;;;;11.20;10.10;;;;;;;;;;5032532;28;20477;-71
2022/08/18 02:08:30;;;;;;;12.57;10.90;;;;;;;;;;5031440;28;20481;-71
2022/08/18 02:11:00;;;;;;;11.60;10.40;;;;;;;;;;5031879;28;20458;-71
2022/08/18 02:13:31;;;;;;;11.37;9.73;;;;;;;;;;5031975;28;20469;-71
2022/08/18 02:15:58;;;;;;;11.90;10.70;;;;;;;;;;5032630;28;20459;-71
2022/08/18 02:18:27;;;;;;;12.57;10.20;;;;;;;;;;5031951;28;20864;-70
2022/08/18 02:20:54;;;;;;;12.37;10.80;;;;;;;;;;5030886;28;20804;-71
2022/08/18 02:23:28;;;;;;;11.30;10.17;;;;;;;;;;5032531;28;20963;-71
2022/08/18 02:26:04;;;;;;;13.33;10.33;;;;;;;;;;5031063;28;20474;-71
2022/08/18 02:28:37;;;;;;;13.13;11.23;;;;;;;;;;5031760;28;20454;-71
2022/08/18 02:31:15;;;;;;;12.23;10.93;;;;;;;;;;5031664;28;20536;-71
2022/08/18 02:33:54;;;;;;;15.00;11.80;;;;;;;;;;5032367;28;20446;-71
2022/08/18 02:36:37;;;;;;;11.70;10.50;;;;;;;;;;5032313;28;20450;-71
2022/08/18 02:39:04;;;;;;;14.00;10.67;;;;;;;;;;5031466;28;21116;-71
2022/08/18 02:41:31;;;;;;;11.30;10.20;;;;;;;;;;5032546;28;20458;-70
2022/08/18 02:44:00;;;;;;;13.93;9.87;;;;;;;;;;5032074;28;20438;-71
2022/08/18 02:46:27;;;;;;;14.53;11.33;;;;;;;;;;5031563;28;20565;-71
2022/08/18 02:49:00;;;;;;;13.53;12.17;;;;;;;;;;5031018;28;20466;-70
2022/08/18 02:51:28;;;;;;;12.10;10.27;;;;;;;;;;5031622;28;20458;-71
2022/08/18 02:54:01;;;;;;;11.43;10.23;;;;;;;;;;5031050;28;20902;-71
2022/08/18 02:56:32;;;;;;;11.90;10.00;;;;;;;;;;5031221;28;20466;-71
2022/08/18 02:59:02;;;;;;;12.10;10.63;;;;;;;;;;5031846;28;20500;-71
2022/08/18 03:01:34;;;;;;;11.67;8.90;;;;;;;;;;5031643;28;20585;-71
2022/08/18 03:04:01;;;;;;;12.30;10.47;;;;;;;;;;5031787;28;20458;-71
2022/08/18 03:06:30;;;;;;;16.33;12.43;;;;;;;;;;5030137;28;20474;-71
2022/08/18 03:09:10;;;;;;;12.37;11.13;;;;;;;;;;5051673;28;20881;-71
2022/08/18 03:11:38;;;;;;;12.10;10.80;;;;;;;;;;5051123;28;20465;-71
2022/08/18 03:14:06;;;;;;;12.20;10.90;;;;;;;;;;5051221;28;20450;-71
2022/08/18 03:16:47;;;;;;;12.13;10.50;;;;;;;;;;5053209;28;20468;-72
2022/08/18 03:19:15;;;;;;;15.33;10.80;;;;;;;;;;5051460;28;21038;-70
2022/08/18 03:21:43;;;;;;;11.63;10.43;;;;;;;;;;5054120;28;20582;-70
2022/08/18 03:24:11;;;;;;;11.63;10.53;;;;;;;;;;5054730;28;20806;-70
2022/08/18 03:26:42;;;;;;;11.83;10.60;;;;;;;;;;5054150;28;20660;-70
2022/08/18 03:29:10;;;;;;;9.30;8.33;;;;;;;;;;5055166;28;20992;-70
2022/08/18 03:31:39;;;;;;;14.70;11.60;;;;;;;;;;5052605;28;20559;-71
2022/08/18 03:34:08;;;;;;;13.60;11.93;;;;;;;;;;5053136;28;20461;-70
2022/08/18 03:36:36;;;;;;;12.70;11.07;;;;;;;;;;5053838;28;20737;-70
2022/08/18 03:39:04;;;;;;;11.57;10.47;;;;;;;;;;5054844;28;20500;-70
2022/08/18 03:41:31;;;;;;;15.90;11.57;;;;;;;;;;5054411;28;20453;-70
2022/08/18 03:44:03;;;;;;;11.17;9.87;;;;;;;;;;5054043;28;20481;-70
2022/08/18 03:46:31;;;;;;;14.87;11.23;;;;;;;;;;5053251;28;20445;-70
2022/08/18 03:49:00;;;;;;;11.70;10.60;;;;;;;;;;5054056;28;20663;-71
2022/08/18 03:51:30;;;;;;;12.10;10.80;;;;;;;;;;5053326;28;20468;-70
2022/08/18 03:53:59;;;;;;;11.50;10.30;;;;;;;;;;5053579;28;20547;-70
2022/08/18 03:56:27;;;;;;;12.07;10.87;;;;;;;;;;5054141;28;20489;-70
2022/08/18 03:58:55;;;;;;;12.30;11.17;;;;;;;;;;5054955;28;20485;-70
2022/08/18 04:01:27;;;;;;;11.90;9.80;;;;;;;;;;5053667;28;20540;-71
2022/08/18 04:03:55;;;;;;;11.33;10.13;;;;;;;;;;5055078;28;20472;-72
2022/08/18 04:06:25;;;;;;;10.97;9.30;;;;;;;;;;5053032;28;20457;-71
2022/08/18 04:08:53;;;;;;;13.47;10.30;;;;;;;;;;5053742;28;20873;-71
2022/08/18 04:11:21;;;;;;;12.13;10.83;;;;;;;;;;5054010;28;20454;-71
2022/08/18 04:13:48;;;;;;;11.90;10.60;;;;;;;;;;5053906;28;20745;-71
2022/08/18 04:16:15;;;;;;;13.13;9.40;;;;;;;;;;5053693;28;20489;-71
2022/08/18 04:18:43;;;;;;;11.73;10.53;;;;;;;;;;5053210;28;20453;-70
2022/08/18 04:21:12;;;;;;;17.60;10.70;;;;;;;;;;5054498;28;20465;-72
2022/08/18 04:23:41;;;;;;;11.50;10.40;;;;;;;;;;5052942;28;20527;-72
2022/08/18 04:26:09;;;;;;;11.80;10.60;;;;;;;;;;5055036;28;20496;-72
2022/08/18 04:28:36;;;;;;;11.83;10.63;;;;;;;;;;5053952;28;20515;-71
2022/08/18 04:31:06;;;;;;;10.33;9.23;;;;;;;;;;5053272;28;20877;-71
2022/08/18 04:33:33;;;;;;;11.83;10.73;;;;;;;;;;5052502;28;20457;-71
2022/08/18 04:36:08;;;;;;;12.70;10.70;;;;;;;;;;5053017;28;20461;-72
2022/08/18 04:38:36;;;;;;;12.83;10.20;;;;;;;;;;5053196;28;20460;-72
2022/08/18 04:41:03;;;;;;;11.20;10.00;;;;;;;;;;5053736;28;20450;-71
2022/08/18 04:43:30;;;;;;;12.60;11.07;;;;;;;;;;5052341;28;20452;-72
2022/08/18 04:46:00;;;;;;;15.13;11.83;;;;;;;;;;5053106;28;20587;-72
2022/08/18 04:48:32;;;;;;;14.73;9.50;;;;;;;;;;5052425;28;20449;-71
2022/08/18 04:51:03;;;;;;;16.93;9.90;;;;;;;;;;5053055;28;20580;-72
2022/08/18 04:53:44;;;;;;;12.73;10.30;;;;;;;;;;5053257;28;20974;-72
2022/08/18 04:56:16;;;;;;;11.67;10.47;;;;;;;;;;5052704;28;20852;-72
2022/08/18 04:58:43;;;;;;;12.97;10.30;;;;;;;;;;5052705;28;20449;-72
2022/08/18 05:01:10;;;;;;;13.73;11.50;;;;;;;;;;5053214;28;20457;-72
2022/08/18 05:03:37;;;;;;;14.50;11.43;;;;;;;;;;5053761;28;20450;-72
2022/08/18 05:06:06;;;;;;;11.90;10.67;;;;;;;;;;5049025;28;20461;-72
2022/08/18 05:08:33;;;;;;;12.73;10.97;;;;;;;;;;5053070;28;20519;-72
2022/08/18 05:11:00;;;;;;;12.23;10.50;;;;;;;;;;5052148;28;20454;-72
2022/08/18 05:13:28;;;;;;;11.30;10.20;;;;;;;;;;5051891;28;20725;-72
2022/08/18 05:15:55;;;;;;;11.20;10.10;;;;;;;;;;5051191;28;20461;-71
2022/08/18 05:18:23;;;;;;;9.33;8.43;;;;;;;;;;5050742;28;20450;-71
2022/08/18 05:20:51;;;;;;;10.90;8.53;;;;;;;;;;5051622;28;20489;-72
2022/08/18 05:23:18;;;;;;;11.90;10.70;;;;;;;;;;5050627;28;20519;-71
2022/08/18 05:25:46;;;;;;;9.63;8.70;;;;;;;;;;5050862;28;20475;-72
2022/08/18 05:28:13;;;;;;;9.53;8.50;;;;;;;;;;5051361;28;20438;-72
2022/08/18 05:30:42;;;;;;;9.80;8.80;;;;;;;;;;5052035;28;20835;-72
2022/08/18 05:33:09;;;;;;;9.37;8.40;;;;;;;;;;5050258;28;20457;-72
2022/08/18 05:35:38;;;;;;;10.43;9.43;;;;;;;;;;5052177;28;20453;-72
2022/08/18 05:38:20;;;;;;;12.83;8.47;;;;;;;;;;5052886;28;20652;-71
2022/08/18 05:41:01;;;;;;;9.60;8.70;;;;;;;;;;5049474;28;20513;-73
2022/08/18 05:43:28;;;;;;;10.67;8.30;;;;;;;;;;5049816;28;20445;-72
2022/08/18 05:45:58;;;;;;;10.10;9.00;;;;;;;;;;5051818;28;20832;-72
2022/08/18 05:48:28;;;;;;;10.73;8.90;;;;;;;;;;5053176;28;20465;-72
2022/08/18 05:50:58;;;;;;;13.07;9.17;;;;;;;;;;5054386;28;20875;-72
2022/08/18 05:56:45;;;;;;;11.10;10.00;;;;;;;;;;5052988;28;20519;-72
2022/08/18 05:59:06;;;;;;;11.57;10.37;;;;;;;;;;5052182;28;20476;-71
2022/08/18 06:01:40;;;;;;;10.67;9.50;;;;;;;;;;5052648;28;20465;-71
2022/08/18 06:04:11;;;;;;;12.03;10.93;;;;;;;;;;5051264;28;20481;-71
2022/08/18 06:06:39;;;;;;;11.03;9.40;;;;;;;;;;5052093;28;20477;-72
2022/08/18 06:09:11;;;;;;;10.03;8.50;;;;;;;;;;5051315;28;21066;-72
2022/08/18 06:11:38;;;;;;;10.07;8.70;;;;;;;;;;5051066;28;20465;-72
2022/08/18 06:14:05;;;;;;;11.37;10.10;;;;;;;;;;5051309;28;20549;-72
2022/08/18 06:16:38;;;;;;;10.10;9.10;;;;;;;;;;5051875;28;20492;-72
2022/08/18 06:22:17;;;;;;;10.97;9.87;;;;;;;;;;5032563;28;20460;-73
2022/08/18 06:24:47;;;;;;;11.13;10.03;;;;;;;;;;5032765;28;20458;-73
2022/08/18 06:27:19;;;;;;;11.90;9.17;;;;;;;;;;5032150;28;20446;-73
2022/08/18 06:29:52;;;;;;;12.87;10.67;;;;;;;;;;5036940;28;20453;-73
2022/08/18 06:32:26;;;;;;;11.60;10.50;;;;;;;;;;5050674;28;20871;-73
2022/08/18 06:35:09;;;;;;;11.53;10.40;;;;;;;;;;5051626;28;20531;-73
2022/08/18 06:40:25;;;;;;;11.17;9.83;;;;;;;;;;5049291;28;20492;-73
2022/08/18 06:42:55;;;;;;;12.20;10.97;;;;;;;;;;5051523;28;20469;-73
2022/08/18 06:45:26;;;;;;;10.87;9.80;;;;;;;;;;5052441;28;20503;-73
2022/08/18 06:47:56;;;;;;;11.07;9.97;;;;;;;;;;5051390;28;20973;-73
2022/08/18 06:50:26;;;;;;;11.53;9.67;;;;;;;;;;5051024;28;20996;-73
2022/08/18 06:52:55;;;;;;;15.47;12.83;;;;;;;;;;5050746;28;20450;-73
2022/08/18 06:55:32;;;;;;;16.70;14.07;;;;;;;;;;5051177;28;20865;-73
2022/08/18 06:58:01;;;;;;;17.10;14.90;;;;;;;;;;5050255;28;21057;-71
2022/08/18 07:00:29;;;;;;;16.00;14.30;;;;;;;;;;5050579;28;20485;-72
2022/08/18 07:03:01;;;;;;;17.33;14.87;;;;;;;;;;5050330;28;20462;-72
2022/08/18 07:05:32;;;;;;;18.87;16.10;;;;;;;;;;5050895;28;20814;-72
2022/08/18 07:08:07;;;;;;;16.47;14.70;;;;;;;;;;5050261;28;20499;-71
2022/08/18 07:10:38;;;;;;;21.17;18.00;;;;;;;;;;5040820;28;20536;-71
2022/08/18 07:13:25;;;;;;;21.50;18.07;;;;;;;;;;5031919;28;20474;-71
2022/08/18 07:19:06;;;;;;;21.23;17.80;;;;;;;;;;5017956;28;20470;-72
2022/08/18 07:21:36;;;;;;;19.63;17.50;;;;;;;;;;5030507;28;20479;-72
2022/08/18 07:24:07;;;;;;;17.97;16.07;;;;;;;;;;5049981;28;20920;-72
2022/08/18 07:26:49;;;;;;;21.17;16.80;;;;;;;;;;5049972;28;20596;-72
2022/08/18 07:29:17;;;;;;;24.70;18.73;;;;;;;;;;5045667;28;21123;-72
2022/08/18 07:31:48;;;;;;;20.97;17.73;;;;;;;;;;5030338;28;20559;-72
2022/08/18 07:34:25;;;;;;;23.43;20.83;;;;;;;;;;5031398;28;20458;-73
2022/08/18 07:36:55;;;;;;;23.50;20.13;;;;;;;;;;5029507;28;20477;-72
2022/08/18 07:39:24;;;;;;;25.07;19.90;;;;;;;;;;5030139;28;20580;-71
2022/08/18 07:41:54;;;;;;;21.87;19.37;;;;;;;;;;5035719;28;20955;-71
2022/08/18 07:44:32;;;;;;;26.30;19.57;;;;;;;;;;5040987;28;20470;-71
2022/08/18 07:47:00;;;;;;;23.70;18.60;;;;;;;;;;5058258;28;20520;-71
2022/08/18 07:49:30;;;;;;;22.17;19.20;;;;;;;;;;5052247;28;20548;-71
2022/08/18 07:52:00;;;;;;;21.90;17.60;;;;;;;;;;5031712;28;20474;-71
2022/08/18 07:54:34;;;;;;;22.33;18.60;;;;;;;;;;5038727;28;20552;-71
2022/08/18 07:57:06;;;;;;;23.27;18.70;;;;;;;;;;5038209;28;20500;-71
2022/08/18 07:59:36;;;;;;;23.37;19.60;;;;;;;;;;5048650;28;20497;-70
2022/08/18 08:02:17;;;;;;;27.20;20.30;;;;;;;;;;5049687;28;20449;-70
2022/08/18 08:04:48;;;;;;;24.00;20.50;;;;;;;;;;5036749;28;20469;-71
2022/08/18 08:07:22;;;;;;;24.80;19.63;;;;;;;;;;5052573;28;20568;-70
2022/08/18 08:09:53;;;;;;;25.03;21.00;;;;;;;;;;5053764;28;20449;-71
2022/08/18 08:12:27;;;;;;;25.77;21.07;;;;;;;;;;5046242;28;20490;-71
2022/08/18 08:14:58;;;;;;;24.73;20.77;;;;;;;;;;5032877;28;20446;-72
2022/08/18 08:17:32;;;;;;;30.40;22.53;;;;;;;;;;5033042;28;20608;-71
2022/08/18 08:20:19;;;;;;;28.00;21.40;;;;;;;;;;5052200;28;20562;-72
2022/08/18 08:22:57;;;;;;;26.40;20.60;;;;;;;;;;5047844;28;20466;-71
2022/08/18 08:25:26;;;;;;;27.43;20.67;;;;;;;;;;5031270;28;20466;-71
2022/08/18 08:28:06;;;;;;;28.60;22.20;;;;;;;;;;5041703;28;20822;-72
2022/08/18 08:30:38;;;;;;;29.33;22.97;;;;;;;;;;5034677;28;20557;-71
2022/08/18 08:33:10;;;;;;;28.43;21.93;;;;;;;;;;5032746;28;20922;-72
2022/08/18 08:35:42;;;;;;;35.03;24.67;;;;;;;;;;5033608;28;20461;-71
2022/08/18 08:38:12;;;;;;;31.23;22.50;;;;;;;;;;5032713;28;20447;-72
2022/08/18 08:40:46;;;;;;;29.50;21.70;;;;;;;;;;5033497;28;20494;-71
2022/08/18 08:43:15;;;;;;;36.67;24.00;;;;;;;;;;5042878;28;20456;-71
2022/08/18 08:45:45;;;;;;;34.10;23.43;;;;;;;;;;5053358;28;20465;-71
2022/08/18 08:48:16;;;;;;;31.60;22.20;;;;;;;;;;5052656;28;20748;-71
2022/08/18 08:50:45;;;;;;;35.03;23.97;;;;;;;;;;5053726;28;20472;-71
2022/08/18 08:53:18;;;;;;;30.47;21.90;;;;;;;;;;5052966;28;20461;-72
2022/08/18 08:55:52;;;;;;;31.00;23.50;;;;;;;;;;5047568;28;20536;-71
2022/08/18 08:58:23;;;;;;;30.27;21.47;;;;;;;;;;5049905;28;20873;-72
2022/08/18 09:00:51;;;;;;;29.00;21.20;;;;;;;;;;5052265;28;20493;-71
2022/08/18 09:03:30;;;;;;;35.27;21.77;;;;;;;;;;5050987;28;20446;-72
2022/08/18 09:06:03;;;;;;;31.40;22.30;;;;;;;;;;5038226;28;20896;-72
2022/08/18 09:08:41;;;;;;;37.77;23.17;;;;;;;;;;5045221;28;20469;-72
2022/08/18 09:11:29;;;;;;;35.50;23.10;;;;;;;;;;5049092;28;21026;-71
2022/08/18 09:14:25;;;;;;;28.47;19.40;;;;;;;;;;5047945;28;21070;-71
2022/08/18 09:17:14;;;;;;;30.70;22.00;;;;;;;;;;5045537;28;20458;-71
2022/08/18 09:19:52;;;;;;;31.17;20.33;;;;;;;;;;5045670;28;21021;-71
2022/08/18 09:22:25;;;;;;;31.03;20.83;;;;;;;;;;5061702;28;20737;-71
2022/08/18 09:24:55;;;;;;;28.60;19.97;;;;;;;;;;5051035;28;20586;-72
2022/08/18 09:27:36;;;;;;;29.03;19.90;;;;;;;;;;5050728;28;20878;-72
2022/08/18 09:30:06;;;;;;;25.83;19.60;;;;;;;;;;5050831;28;20865;-72
2022/08/18 09:32:42;;;;;;;30.50;21.50;;;;;;;;;;5050713;28;20470;-72
2022/08/18 09:35:18;;;;;;;26.70;19.27;;;;;;;;;;5032680;28;20603;-72
2022/08/18 09:41:30;;;;;;;26.83;19.80;;;;;;;;;;5052400;28;20552;-72
2022/08/18 09:43:53;;;;;;;26.80;19.13;;;;;;;;;;5052227;28;20453;-72
2022/08/18 09:46:35;;;;;;;22.13;17.20;;;;;;;;;;5044739;28;20477;-72
2022/08/18 09:49:17;;;;;;;21.97;17.57;;;;;;;;;;5042620;28;20885;-71
2022/08/18 09:51:44;;;;;;;22.30;18.40;;;;;;;;;;5049195;28;20568;-72
2022/08/18 09:54:20;;;;;;;23.37;18.97;;;;;;;;;;5050552;28;20519;-71
2022/08/18 09:57:10;;;;;;;25.70;19.33;;;;;;;;;;5046133;28;20485;-72
2022/08/18 09:59:56;;;;;;;27.53;18.30;;;;;;;;;;5041218;28;20517;-71
2022/08/18 10:02:45;;;;;;;21.43;17.00;;;;;;;;;;5044466;28;20569;-72
2022/08/18 10:05:28;;;;;;;21.17;16.67;;;;;;;;;;5023786;28;20474;-72
2022/08/18 10:08:23;;;;;;;20.97;18.20;;;;;;;;;;5049089;28;20476;-72
2022/08/18 10:10:56;;;;;;;21.83;16.00;;;;;;;;;;5050905;28;20527;-73
2022/08/18 10:13:46;;;;;;;;;;;;;;;;;;;;;
2022/08/18 10:16:21;;;;;;;19.00;15.37;;;;;;;;;;5050876;28;20457;-72
2022/08/18 10:18:58;;;;;;;24.07;16.40;;;;;;;;;;5044423;28;20469;-73
2022/08/18 10:21:35;;;;;;;21.33;16.27;;;;;;;;;;5052633;28;20567;-73
2022/08/18 10:24:18;;;;;;;19.70;17.27;;;;;;;;;;5050801;28;21042;-72
2022/08/18 10:27:06;;;;;;;24.17;21.00;;;;;;;;;;5052418;28;20556;-72
2022/08/18 10:29:54;;;;;;;21.33;14.50;;;;;;;;;;5050589;28;20870;-73
2022/08/18 10:32:51;;;;;;;20.10;15.40;;;;;;;;;;5050482;28;20467;-74
2022/08/18 10:38:48;;;;;;;18.00;14.97;;;;;;;;;;4987885;28;21169;-73
2022/08/18 10:41:23;;;;;;;19.73;16.30;;;;;;;;;;5050128;28;20928;-73
2022/08/18 10:44:02;;;;;;;19.20;15.60;;;;;;;;;;5050514;28;20457;-73
2022/08/18 10:46:35;;;;;;;21.30;15.40;;;;;;;;;;5051146;28;20465;-73
2022/08/18 10:49:05;;;;;;;20.57;16.50;;;;;;;;;;5051294;28;20526;-73
2022/08/18 10:51:51;;;;;;;19.87;15.47;;;;;;;;;;5050988;28;20461;-73
2022/08/18 10:54:37;;;;;;;19.23;15.97;;;;;;;;;;5049282;28;20469;-73
2022/08/18 10:57:18;;;;;;;17.80;15.97;;;;;;;;;;5043491;28;20469;-73
2022/08/18 10:59:56;;;;;;;21.87;16.47;;;;;;;;;;5029646;28;20736;-73
2022/08/18 11:02:44;;;;;;;17.73;14.60;;;;;;;;;;5036440;28;20487;-73
2022/08/18 11:05:17;;;;;;;17.70;14.17;;;;;;;;;;5035466;28;20852;-73
2022/08/18 11:07:47;;;;;;;17.33;15.53;;;;;;;;;;5048762;28;20884;-73
2022/08/18 11:10:31;;;;;;;19.37;15.70;;;;;;;;;;5048242;28;21084;-73
2022/08/18 11:13:03;;;;;;;16.47;14.30;;;;;;;;;;5048658;28;20555;-73
2022/08/18 11:15:36;;;;;;;18.60;15.13;;;;;;;;;;5032647;28;20860;-73
2022/08/18 11:18:11;;;;;;;15.50;13.53;;;;;;;;;;5044945;28;20465;-74
2022/08/18 11:20:41;;;;;;;21.20;14.50;;;;;;;;;;5053368;28;20519;-74
2022/08/18 11:23:14;;;;;;;16.07;13.20;;;;;;;;;;5056349;28;20465;-74
2022/08/18 11:25:41;;;;;;;16.43;13.50;;;;;;;;;;5050536;28;20480;-73
2022/08/18 11:28:15;;;;;;;18.03;13.37;;;;;;;;;;5047098;28;20500;-73
2022/08/18 11:30:43;;;;;;;16.77;13.40;;;;;;;;;;5047305;28;20449;-74
2022/08/18 11:33:15;;;;;;;16.47;13.57;;;;;;;;;;5048747;28;20907;-74
2022/08/18 11:35:47;;;;;;;17.70;14.17;;;;;;;;;;5046475;28;20457;-73
2022/08/18 11:38:18;;;;;;;13.73;12.23;;;;;;;;;;5050153;28;20506;-72
2022/08/18 11:40:51;;;;;;;14.60;11.47;;;;;;;;;;5045083;28;20491;-73
2022/08/18 11:43:20;;;;;;;15.07;13.40;;;;;;;;;;5051101;28;20457;-73
2022/08/18 11:45:55;;;;;;;15.43;13.03;;;;;;;;;;5065454;28;21060;-72
2022/08/18 11:48:40;;;;;;;15.47;11.80;;;;;;;;;;5049668;28;20468;-72
2022/08/18 11:51:12;;;;;;;13.07;11.67;;;;;;;;;;5051615;28;20454;-72
2022/08/18 11:53:42;;;;;;;22.23;11.20;;;;;;;;;;5045889;28;20527;-72
2022/08/18 11:56:27;;;;;;;15.43;13.37;;;;;;;;;;5051696;28;20453;-72
2022/08/18 11:58:56;;;;;;;14.17;12.60;;;;;;;;;;5053177;28;20535;-72
2022/08/18 12:01:40;;;;;;;15.73;12.77;;;;;;;;;;5051757;28;20497;-74
2022/08/18 12:04:17;;;;;;;14.50;11.40;;;;;;;;;;5053310;28;20487;-74
2022/08/18 12:07:05;;;;;;;12.43;11.07;;;;;;;;;;5051941;28;20470;-74
2022/08/18 12:09:37;;;;;;;14.00;11.70;;;;;;;;;;5036586;28;20465;-73
2022/08/18 12:12:08;;;;;;;11.73;10.47;;;;;;;;;;5042613;28;20467;-73
2022/08/18 12:14:52;;;;;;;13.50;11.10;;;;;;;;;;5052781;28;20480;-73
2022/08/18 12:17:19;;;;;;;13.27;11.07;;;;;;;;;;5052465;28;20878;-72
2022/08/18 12:19:47;;;;;;;12.00;10.83;;;;;;;;;;5052594;28;20547;-72
2022/08/18 12:22:19;;;;;;;14.80;10.70;;;;;;;;;;5052182;28;20454;-74
2022/08/18 12:24:48;;;;;;;11.03;9.57;;;;;;;;;;5050916;28;20834;-74
2022/08/18 12:27:16;;;;;;;12.03;10.93;;;;;;;;;;5052337;28;20746;-74
2022/08/18 12:29:45;;;;;;;11.03;9.93;;;;;;;;;;5053064;28;20528;-74
2022/08/18 12:32:22;;;;;;;12.60;10.00;;;;;;;;;;5043973;28;20489;-73
2022/08/18 12:34:55;;;;;;;9.90;8.90;;;;;;;;;;5033742;28;20512;-74
2022/08/18 12:37:24;;;;;;;11.83;10.47;;;;;;;;;;5046610;28;20457;-74
2022/08/18 12:39:59;;;;;;;10.90;9.80;;;;;;;;;;5055373;28;20481;-74
2022/08/18 12:42:29;;;;;;;15.53;11.87;;;;;;;;;;5055880;28;20472;-73
2022/08/18 12:44:58;;;;;;;11.20;10.03;;;;;;;;;;5070457;28;20441;-73
2022/08/18 12:47:27;;;;;;;14.17;10.70;;;;;;;;;;5032013;28;20477;-73
2022/08/18 12:49:55;;;;;;;9.60;8.40;;;;;;;;;;5035030;28;20461;-75
2022/08/18 12:52:34;;;;;;;9.53;8.20;;;;;;;;;;5050399;28;20461;-74
2022/08/18 12:55:02;;;;;;;12.60;8.63;;;;;;;;;;5041169;28;20756;-75
2022/08/18 12:57:31;;;;;;;9.27;8.37;;;;;;;;;;5049606;28;20980;-74
2022/08/18 13:00:07;;;;;;;10.93;9.20;;;;;;;;;;5050230;28;20468;-73
2022/08/18 13:02:49;;;;;;;10.03;8.37;;;;;;;;;;5055698;28;20549;-76
2022/08/18 13:05:17;;;;;;;10.37;8.17;;;;;;;;;;5049425;28;20481;-75
2022/08/18 13:08:02;;;;;;;12.20;10.10;;;;;;;;;;5055535;28;20464;-75
2022/08/18 13:10:30;;;;;;;11.00;9.67;;;;;;;;;;5056989;28;20472;-75
2022/08/18 13:12:58;;;;;;;11.67;10.47;;;;;;;;;;5050011;28;20473;-75
2022/08/18 13:15:26;;;;;;;10.67;9.40;;;;;;;;;;5031973;28;20546;-75
2022/08/18 13:17:53;;;;;;;11.20;9.27;;;;;;;;;;5037912;28;20496;-75
2022/08/18 13:20:20;;;;;;;10.63;9.43;;;;;;;;;;5049281;28;21031;-75
2022/08/18 13:22:47;;;;;;;11.10;9.80;;;;;;;;;;5050922;28;20522;-73
2022/08/18 13:25:16;;;;;;;16.53;9.83;;;;;;;;;;5051550;28;20458;-74
2022/08/18 13:27:45;;;;;;;9.77;8.77;;;;;;;;;;5037406;28;20544;-73
2022/08/18 13:30:19;;;;;;;10.73;9.60;;;;;;;;;;5043986;28;21143;-74
2022/08/18 13:33:10;;;;;;;9.30;8.30;;;;;;;;;;5042116;28;20536;-75
2022/08/18 13:38:47;;;;;;;9.40;8.40;;;;;;;;;;5042331;28;20461;-73
2022/08/18 13:41:17;;;;;;;10.10;9.10;;;;;;;;;;5050673;28;20485;-73
2022/08/18 13:44:01;;;;;;;10.00;8.73;;;;;;;;;;5039589;28;20466;-74
2022/08/18 13:46:34;;;;;;;11.07;9.30;;;;;;;;;;5050035;28;20475;-73
2022/08/18 13:49:04;;;;;;;12.40;8.50;;;;;;;;;;5050109;28;20458;-73
2022/08/18 13:51:32;;;;;;;8.73;7.90;;;;;;;;;;5049165;28;20477;-73
2022/08/18 13:54:01;;;;;;;11.90;8.90;;;;;;;;;;5051424;28;20534;-74
2022/08/18 13:56:47;;;;;;;10.77;9.70;;;;;;;;;;5048772;28;20473;-73
2022/08/18 13:59:18;;;;;;;11.80;9.33;;;;;;;;;;5048667;28;21103;-73
2022/08/18 14:01:49;;;;;;;19.20;9.33;;;;;;;;;;5054801;28;20530;-72
2022/08/18 14:04:16;;;;;;;11.07;8.97;;;;;;;;;;5047293;28;20552;-73
2022/08/18 14:06:44;;;;;;;9.60;8.60;;;;;;;;;;5052928;28;20516;-73
2022/08/18 14:09:12;;;;;;;17.03;10.13;;;;;;;;;;5047509;28;20456;-73
2022/08/18 14:11:40;;;;;;;13.77;8.60;;;;;;;;;;5048753;28;20469;-72
2022/08/18 14:14:10;;;;;;;10.20;8.10;;;;;;;;;;5040820;28;20453;-72
2022/08/18 14:16:57;;;;;;;9.67;7.83;;;;;;;;;;5054859;28;20539;-72
2022/08/18 14:27:59;;;;;;;8.77;7.40;;;;;;;;;;5046282;28;20527;-74
2022/08/18 14:30:29;;;;;;;11.10;8.10;;;;;;;;;;5047382;28;20460;-72
2022/08/18 14:33:01;;;;;;;9.23;8.00;;;;;;;;;;5045308;28;20446;-73
2022/08/18 14:35:39;;;;;;;8.43;7.30;;;;;;;;;;5053462;28;20765;-73
2022/08/18 14:38:09;;;;;;;8.87;7.10;;;;;;;;;;5054831;28;20846;-74
2022/08/18 14:40:40;;;;;;;8.60;7.30;;;;;;;;;;5056764;28;21020;-73
2022/08/18 14:43:12;;;;;;;10.30;7.17;;;;;;;;;;5049398;28;20900;-72
2022/08/18 14:45:47;;;;;;;7.97;7.00;;;;;;;;;;5051186;28;20460;-72
2022/08/18 14:48:17;;;;;;;8.20;7.13;;;;;;;;;;5040265;28;20472;-73
2022/08/18 14:50:54;;;;;;;8.07;6.97;;;;;;;;;;5052202;28;20461;-72
2022/08/18 14:53:24;;;;;;;8.77;7.20;;;;;;;;;;5049560;28;20449;-72
2022/08/18 14:55:58;;;;;;;7.77;6.97;;;;;;;;;;5050330;28;20472;-72
2022/08/18 14:58:27;;;;;;;9.30;7.20;;;;;;;;;;5040152;28;20476;-73
2022/08/18 15:00:56;;;;;;;11.90;7.33;;;;;;;;;;5047063;28;20496;-73
2022/08/18 15:03:26;;;;;;;8.53;6.90;;;;;;;;;;5049601;28;20461;-73
2022/08/18 15:05:56;;;;;;;13.90;6.37;;;;;;;;;;5041078;28;20446;-74
2022/08/18 15:08:24;;;;;;;9.10;6.07;;;;;;;;;;5032553;28;20465;-73
2022/08/18 15:10:51;;;;;;;6.73;5.97;;;;;;;;;;5049746;28;20540;-72
2022/08/18 15:13:19;;;;;;;7.30;6.47;;;;;;;;;;5049451;28;21030;-72
2022/08/18 15:15:46;;;;;;;7.00;6.30;;;;;;;;;;5059249;28;20437;-73
2022/08/18 15:18:17;;;;;;;7.13;5.90;;;;;;;;;;5051175;28;20827;-73
2022/08/18 15:26:22;;;;;;;8.80;5.80;;;;;;;;;;5050285;28;20896;-73
2022/08/18 15:28:49;;;;;;;6.50;5.07;;;;;;;;;;5049847;28;20940;-73
2022/08/18 15:31:17;;;;;;;6.57;5.97;;;;;;;;;;5048384;28;20464;-73
2022/08/18 15:33:45;;;;;;;7.03;6.10;;;;;;;;;;5048425;28;20445;-74
2022/08/18 15:36:16;;;;;;;5.67;5.13;;;;;;;;;;5048544;28;20788;-74